sensor_id;sensor_type;location;lat;lon;timestamp;pressure;altitude;pressure_sealevel;temperature;humidity
53246;BME280;39569;51.090;-1.786;2023-05-08T00:00:58;101385.41;;;21.31;49.69
53246;BME280;39569;51.090;-1.786;2023-05-08T00:03:24;101395.78;;;21.23;50.28
53246;BME280;39569;51.090;-1.786;2023-05-08T00:05:51;101375.97;;;21.34;49.49
53246;BME280;39569;51.090;-1.786;2023-05-08T00:08:21;101387.63;;;21.23;49.75
53246;BME280;39569;51.090;-1.786;2023-05-08T00:10:48;101375.78;;;21.17;49.94
53246;BME280;39569;51.090;-1.786;2023-05-08T00:13:15;101375.91;;;21.22;49.43
53246;BME280;39569;51.090;-1.786;2023-05-08T00:15:42;101376.44;;;21.13;49.77
53246;BME280;39569;51.090;-1.786;2023-05-08T00:18:09;101381.53;;;20.85;50.95
53246;BME280;39569;51.090;-1.786;2023-05-08T00:20:36;101380.59;;;21.15;50.07
53246;BME280;39569;51.090;-1.786;2023-05-08T00:23:03;101375.72;;;20.81;50.51
53246;BME280;39569;51.090;-1.786;2023-05-08T00:25:31;101380.16;;;21.00;50.48
53246;BME280;39569;51.090;-1.786;2023-05-08T00:27:58;101382.25;;;21.16;49.51
53246;BME280;39569;51.090;-1.786;2023-05-08T00:30:25;101377.97;;;21.27;49.30
53246;BME280;39569;51.090;-1.786;2023-05-08T00:32:52;101373.56;;;21.26;49.10
53246;BME280;39569;51.090;-1.786;2023-05-08T00:35:18;101385.81;;;21.17;49.51
53246;BME280;39569;51.090;-1.786;2023-05-08T00:37:45;101379.38;;;21.11;49.05
53246;BME280;39569;51.090;-1.786;2023-05-08T00:40:12;101385.91;;;21.10;48.84
53246;BME280;39569;51.090;-1.786;2023-05-08T00:42:40;101374.31;;;20.97;49.57
53246;BME280;39569;51.090;-1.786;2023-05-08T00:45:08;101369.31;;;20.94;49.35
53246;BME280;39569;51.090;-1.786;2023-05-08T00:47:35;101369.25;;;20.82;49.52
53246;BME280;39569;51.090;-1.786;2023-05-08T00:50:02;101366.03;;;20.92;48.79
53246;BME280;39569;51.090;-1.786;2023-05-08T00:52:29;101374.97;;;20.56;49.88
53246;BME280;39569;51.090;-1.786;2023-05-08T00:54:58;101364.56;;;20.89;49.47
53246;BME280;39569;51.090;-1.786;2023-05-08T00:57:25;101367.03;;;20.54;50.10
53246;BME280;39569;51.090;-1.786;2023-05-08T00:59:54;101357.94;;;20.67;49.79
53246;BME280;39569;51.090;-1.786;2023-05-08T01:02:21;101366.34;;;20.59;50.63
53246;BME280;39569;51.090;-1.786;2023-05-08T01:04:48;101357.09;;;20.85;50.10
53246;BME280;39569;51.090;-1.786;2023-05-08T01:07:16;101357.56;;;20.82;50.17
53246;BME280;39569;51.090;-1.786;2023-05-08T01:09:43;101352.44;;;20.92;49.91
53246;BME280;39569;51.090;-1.786;2023-05-08T01:12:16;101352.13;;;20.21;51.96
53246;BME280;39569;51.090;-1.786;2023-05-08T01:14:50;101356.06;;;21.04;50.51
53246;BME280;39569;51.090;-1.786;2023-05-08T01:17:28;101356.75;;;20.99;50.37
53246;BME280;39569;51.090;-1.786;2023-05-08T01:20:12;101353.19;;;20.81;50.88
53246;BME280;39569;51.090;-1.786;2023-05-08T01:23:07;101358.53;;;20.87;50.56
53246;BME280;39569;51.090;-1.786;2023-05-08T01:26:10;101356.72;;;20.63;51.35
53246;BME280;39569;51.090;-1.786;2023-05-08T01:29:05;101347.75;;;19.89;53.35
53246;BME280;39569;51.090;-1.786;2023-05-08T01:31:50;101351.69;;;20.42;52.16
53246;BME280;39569;51.090;-1.786;2023-05-08T01:34:22;101349.84;;;19.87;53.22
53246;BME280;39569;51.090;-1.786;2023-05-08T01:36:53;101355.41;;;20.47;51.87
53246;BME280;39569;51.090;-1.786;2023-05-08T01:39:33;101365.47;;;20.65;51.74
53246;BME280;39569;51.090;-1.786;2023-05-08T01:42:06;101362.50;;;20.24;52.87
53246;BME280;39569;51.090;-1.786;2023-05-08T01:44:38;101354.19;;;20.86;50.89
53246;BME280;39569;51.090;-1.786;2023-05-08T01:47:08;101350.78;;;21.09;50.45
53246;BME280;39569;51.090;-1.786;2023-05-08T01:49:39;101354.38;;;20.85;51.18
53246;BME280;39569;51.090;-1.786;2023-05-08T01:52:11;101349.47;;;21.29;50.02
53246;BME280;39569;51.090;-1.786;2023-05-08T01:54:43;101352.50;;;20.85;51.04
53246;BME280;39569;51.090;-1.786;2023-05-08T01:57:13;101349.84;;;21.33;49.95
53246;BME280;39569;51.090;-1.786;2023-05-08T01:59:41;101346.31;;;21.32;49.91
53246;BME280;39569;51.090;-1.786;2023-05-08T02:02:11;101346.38;;;21.26;49.63
53246;BME280;39569;51.090;-1.786;2023-05-08T02:04:40;101342.78;;;21.14;50.02
53246;BME280;39569;51.090;-1.786;2023-05-08T02:07:08;101347.88;;;21.10;50.01
53246;BME280;39569;51.090;-1.786;2023-05-08T02:09:35;101350.97;;;21.25;49.85
53246;BME280;39569;51.090;-1.786;2023-05-08T02:12:05;101346.63;;;21.24;49.57
53246;BME280;39569;51.090;-1.786;2023-05-08T02:14:34;101340.22;;;21.19;49.70
53246;BME280;39569;51.090;-1.786;2023-05-08T02:17:03;101335.81;;;21.36;49.30
53246;BME280;39569;51.090;-1.786;2023-05-08T02:19:33;101340.38;;;21.06;50.29
53246;BME280;39569;51.090;-1.786;2023-05-08T02:22:03;101336.91;;;21.46;49.05
53246;BME280;39569;51.090;-1.786;2023-05-08T02:24:31;101335.28;;;21.57;48.88
53246;BME280;39569;51.090;-1.786;2023-05-08T02:27:00;101334.09;;;21.53;49.15
53246;BME280;39569;51.090;-1.786;2023-05-08T02:29:27;101328.69;;;21.65;49.00
53246;BME280;39569;51.090;-1.786;2023-05-08T02:31:55;101330.38;;;21.36;49.37
53246;BME280;39569;51.090;-1.786;2023-05-08T02:34:24;101333.81;;;21.73;48.89
53246;BME280;39569;51.090;-1.786;2023-05-08T02:36:52;101329.97;;;21.92;48.46
53246;BME280;39569;51.090;-1.786;2023-05-08T02:39:24;101332.78;;;21.85;48.64
53246;BME280;39569;51.090;-1.786;2023-05-08T02:41:51;101321.31;;;21.83;48.25
53246;BME280;39569;51.090;-1.786;2023-05-08T02:44:18;101320.47;;;21.83;48.20
53246;BME280;39569;51.090;-1.786;2023-05-08T02:46:51;101326.69;;;21.72;48.49
53246;BME280;39569;51.090;-1.786;2023-05-08T02:49:26;101318.38;;;21.96;48.32
53246;BME280;39569;51.090;-1.786;2023-05-08T02:51:59;101324.50;;;21.21;49.67
53246;BME280;39569;51.090;-1.786;2023-05-08T02:54:35;101311.63;;;21.87;48.35
53246;BME280;39569;51.090;-1.786;2023-05-08T02:57:09;101318.88;;;21.93;48.38
53246;BME280;39569;51.090;-1.786;2023-05-08T02:59:43;101314.97;;;22.01;48.15
53246;BME280;39569;51.090;-1.786;2023-05-08T03:02:14;101319.28;;;21.79;48.37
53246;BME280;39569;51.090;-1.786;2023-05-08T03:04:47;101318.25;;;21.50;49.35
53246;BME280;39569;51.090;-1.786;2023-05-08T03:07:15;101305.00;;;21.53;48.95
53246;BME280;39569;51.090;-1.786;2023-05-08T03:09:46;101315.81;;;21.30;49.84
53246;BME280;39569;51.090;-1.786;2023-05-08T03:12:17;101308.88;;;21.16;49.73
53246;BME280;39569;51.090;-1.786;2023-05-08T03:14:52;101314.44;;;21.39;49.40
53246;BME280;39569;51.090;-1.786;2023-05-08T03:17:21;101310.22;;;21.25;49.92
53246;BME280;39569;51.090;-1.786;2023-05-08T03:19:54;101302.94;;;21.67;48.62
53246;BME280;39569;51.090;-1.786;2023-05-08T03:22:22;101299.25;;;21.62;49.09
53246;BME280;39569;51.090;-1.786;2023-05-08T03:24:52;101297.97;;;21.76;48.29
53246;BME280;39569;51.090;-1.786;2023-05-08T03:27:21;101294.13;;;21.53;48.89
53246;BME280;39569;51.090;-1.786;2023-05-08T03:29:49;101298.72;;;21.41;49.10
53246;BME280;39569;51.090;-1.786;2023-05-08T03:32:17;101296.28;;;21.63;48.67
53246;BME280;39569;51.090;-1.786;2023-05-08T03:34:45;101305.25;;;21.22;49.31
53246;BME280;39569;51.090;-1.786;2023-05-08T03:37:12;101318.09;;;20.79;50.04
53246;BME280;39569;51.090;-1.786;2023-05-08T03:39:39;101308.75;;;21.11;49.64
53246;BME280;39569;51.090;-1.786;2023-05-08T03:42:08;101309.72;;;21.46;48.77
53246;BME280;39569;51.090;-1.786;2023-05-08T03:44:35;101292.69;;;21.39;49.06
53246;BME280;39569;51.090;-1.786;2023-05-08T03:47:03;101304.41;;;21.51;49.16
53246;BME280;39569;51.090;-1.786;2023-05-08T03:49:32;101292.94;;;21.79;48.31
53246;BME280;39569;51.090;-1.786;2023-05-08T03:51:59;101302.22;;;21.72;48.18
53246;BME280;39569;51.090;-1.786;2023-05-08T03:54:26;101297.34;;;21.92;48.19
53246;BME280;39569;51.090;-1.786;2023-05-08T03:56:54;101300.09;;;21.74;48.46
53246;BME280;39569;51.090;-1.786;2023-05-08T03:59:28;101300.66;;;21.64;48.52
53246;BME280;39569;51.090;-1.786;2023-05-08T04:02:07;101298.78;;;21.65;48.67
53246;BME280;39569;51.090;-1.786;2023-05-08T04:04:38;101296.38;;;21.45;49.13
53246;BME280;39569;51.090;-1.786;2023-05-08T04:07:07;101295.00;;;21.66;48.73
53246;BME280;39569;51.090;-1.786;2023-05-08T04:09:41;101293.88;;;21.43;49.54
53246;BME280;39569;51.090;-1.786;2023-05-08T04:12:25;101292.88;;;21.68;49.06
53246;BME280;39569;51.090;-1.786;2023-05-08T04:15:03;101287.97;;;21.46;49.43
53246;BME280;39569;51.090;-1.786;2023-05-08T04:17:37;101288.06;;;21.70;48.65
53246;BME280;39569;51.090;-1.786;2023-05-08T04:20:08;101287.38;;;21.44;49.51
53246;BME280;39569;51.090;-1.786;2023-05-08T04:22:38;101287.69;;;21.36;49.81
53246;BME280;39569;51.090;-1.786;2023-05-08T04:25:07;101288.63;;;21.60;48.80
53246;BME280;39569;51.090;-1.786;2023-05-08T04:27:36;101298.81;;;21.76;48.79
53246;BME280;39569;51.090;-1.786;2023-05-08T04:30:07;101298.00;;;21.46;49.61
53246;BME280;39569;51.090;-1.786;2023-05-08T04:32:34;101301.09;;;21.91;48.41
53246;BME280;39569;51.090;-1.786;2023-05-08T04:35:03;101295.63;;;21.68;48.82
53246;BME280;39569;51.090;-1.786;2023-05-08T04:37:30;101300.44;;;21.66;49.02
53246;BME280;39569;51.090;-1.786;2023-05-08T04:39:57;101300.25;;;21.79;48.74
53246;BME280;39569;51.090;-1.786;2023-05-08T04:42:24;101302.34;;;21.65;48.99
53246;BME280;39569;51.090;-1.786;2023-05-08T04:44:51;101302.38;;;21.77;48.88
53246;BME280;39569;51.090;-1.786;2023-05-08T04:47:20;101312.75;;;21.09;50.50
53246;BME280;39569;51.090;-1.786;2023-05-08T04:49:48;101306.50;;;21.68;49.21
53246;BME280;39569;51.090;-1.786;2023-05-08T04:52:15;101305.31;;;21.34;49.62
53246;BME280;39569;51.090;-1.786;2023-05-08T04:54:42;101305.22;;;21.82;48.73
53246;BME280;39569;51.090;-1.786;2023-05-08T04:57:08;101307.72;;;21.53;49.55
53246;BME280;39569;51.090;-1.786;2023-05-08T04:59:35;101311.69;;;21.69;48.93
53246;BME280;39569;51.090;-1.786;2023-05-08T05:02:02;101312.47;;;22.11;48.36
53246;BME280;39569;51.090;-1.786;2023-05-08T05:04:31;101311.31;;;22.18;48.22
53246;BME280;39569;51.090;-1.786;2023-05-08T05:06:58;101321.16;;;21.78;48.50
53246;BME280;39569;51.090;-1.786;2023-05-08T05:09:25;101311.97;;;21.79;48.45
53246;BME280;39569;51.090;-1.786;2023-05-08T05:11:52;101312.72;;;21.68;48.91
53246;BME280;39569;51.090;-1.786;2023-05-08T05:14:21;101318.84;;;22.05;48.25
53246;BME280;39569;51.090;-1.786;2023-05-08T05:16:48;101327.25;;;22.03;48.62
53246;BME280;39569;51.090;-1.786;2023-05-08T05:19:15;101318.09;;;21.75;49.35
53246;BME280;39569;51.090;-1.786;2023-05-08T05:21:43;101323.03;;;21.78;49.41
53246;BME280;39569;51.090;-1.786;2023-05-08T05:24:09;101334.34;;;21.93;48.88
53246;BME280;39569;51.090;-1.786;2023-05-08T05:26:36;101317.75;;;21.83;49.24
53246;BME280;39569;51.090;-1.786;2023-05-08T05:29:03;101317.69;;;22.01;48.55
53246;BME280;39569;51.090;-1.786;2023-05-08T05:31:30;101321.59;;;22.16;48.09
53246;BME280;39569;51.090;-1.786;2023-05-08T05:33:57;101321.59;;;22.16;48.50
53246;BME280;39569;51.090;-1.786;2023-05-08T05:36:24;101325.28;;;22.45;47.47
53246;BME280;39569;51.090;-1.786;2023-05-08T05:38:52;101321.97;;;22.31;47.99
53246;BME280;39569;51.090;-1.786;2023-05-08T05:41:19;101313.78;;;21.97;49.11
53246;BME280;39569;51.090;-1.786;2023-05-08T05:43:46;101320.28;;;22.07;48.58
53246;BME280;39569;51.090;-1.786;2023-05-08T05:46:13;101319.69;;;22.05;48.61
53246;BME280;39569;51.090;-1.786;2023-05-08T05:48:40;101325.72;;;22.07;48.64
53246;BME280;39569;51.090;-1.786;2023-05-08T05:51:06;101323.75;;;22.37;48.30
53246;BME280;39569;51.090;-1.786;2023-05-08T05:53:33;101320.78;;;22.39;48.08
53246;BME280;39569;51.090;-1.786;2023-05-08T05:56:01;101332.13;;;22.47;47.83
53246;BME280;39569;51.090;-1.786;2023-05-08T05:58:28;101322.31;;;22.12;48.53
53246;BME280;39569;51.090;-1.786;2023-05-08T06:00:57;101314.84;;;21.84;49.49
53246;BME280;39569;51.090;-1.786;2023-05-08T06:03:25;101316.88;;;22.12;48.32
53246;BME280;39569;51.090;-1.786;2023-05-08T06:05:52;101305.88;;;21.77;49.16
53246;BME280;39569;51.090;-1.786;2023-05-08T06:08:18;101309.28;;;21.61;49.29
53246;BME280;39569;51.090;-1.786;2023-05-08T06:10:45;101310.13;;;21.62;49.62
53246;BME280;39569;51.090;-1.786;2023-05-08T06:13:13;101310.97;;;21.74;49.69
53246;BME280;39569;51.090;-1.786;2023-05-08T06:15:40;101313.97;;;21.42;50.24
53246;BME280;39569;51.090;-1.786;2023-05-08T06:18:07;101307.53;;;21.67;49.88
53246;BME280;39569;51.090;-1.786;2023-05-08T06:20:36;101310.94;;;21.50;50.44
53246;BME280;39569;51.090;-1.786;2023-05-08T06:23:02;101306.16;;;21.34;50.76
53246;BME280;39569;51.090;-1.786;2023-05-08T06:25:29;101289.25;;;21.44;50.06
53246;BME280;39569;51.090;-1.786;2023-05-08T06:27:56;101314.50;;;21.33;50.75
53246;BME280;39569;51.090;-1.786;2023-05-08T06:30:24;101306.28;;;21.39;50.85
53246;BME280;39569;51.090;-1.786;2023-05-08T06:32:51;101313.13;;;21.42;51.31
53246;BME280;39569;51.090;-1.786;2023-05-08T06:35:18;101313.63;;;21.50;50.64
53246;BME280;39569;51.090;-1.786;2023-05-08T06:37:45;101305.41;;;21.69;50.21
53246;BME280;39569;51.090;-1.786;2023-05-08T06:40:12;101304.84;;;21.37;51.19
53246;BME280;39569;51.090;-1.786;2023-05-08T06:42:40;101304.69;;;21.62;50.83
53246;BME280;39569;51.090;-1.786;2023-05-08T06:45:07;101305.41;;;22.10;49.58
53246;BME280;39569;51.090;-1.786;2023-05-08T06:47:35;101308.84;;;21.76;50.14
53246;BME280;39569;51.090;-1.786;2023-05-08T06:50:02;101307.97;;;21.52;50.76
53246;BME280;39569;51.090;-1.786;2023-05-08T06:52:29;101306.38;;;21.74;50.74
53246;BME280;39569;51.090;-1.786;2023-05-08T06:54:56;101304.28;;;21.46;51.19
53246;BME280;39569;51.090;-1.786;2023-05-08T06:57:22;101302.91;;;21.97;50.22
53246;BME280;39569;51.090;-1.786;2023-05-08T06:59:51;101303.16;;;21.77;50.72
53246;BME280;39569;51.090;-1.786;2023-05-08T07:02:18;101304.69;;;22.03;50.34
53246;BME280;39569;51.090;-1.786;2023-05-08T07:04:46;101301.56;;;21.99;50.25
53246;BME280;39569;51.090;-1.786;2023-05-08T07:07:13;101306.59;;;21.73;51.29
53246;BME280;39569;51.090;-1.786;2023-05-08T07:09:40;101308.34;;;21.56;52.10
53246;BME280;39569;51.090;-1.786;2023-05-08T07:12:06;101314.03;;;21.66;51.46
53246;BME280;39569;51.090;-1.786;2023-05-08T07:14:34;101314.50;;;22.04;50.86
53246;BME280;39569;51.090;-1.786;2023-05-08T07:17:02;101316.91;;;21.41;52.87
53246;BME280;39569;51.090;-1.786;2023-05-08T07:19:31;101314.38;;;21.99;51.16
53246;BME280;39569;51.090;-1.786;2023-05-08T07:21:59;101315.91;;;21.95;51.51
53246;BME280;39569;51.090;-1.786;2023-05-08T07:24:26;101310.28;;;21.37;52.54
53246;BME280;39569;51.090;-1.786;2023-05-08T07:26:53;101313.19;;;21.95;51.19
53246;BME280;39569;51.090;-1.786;2023-05-08T07:29:20;101316.63;;;22.02;51.41
53246;BME280;39569;51.090;-1.786;2023-05-08T07:31:47;101310.38;;;21.60;52.30
53246;BME280;39569;51.090;-1.786;2023-05-08T07:34:14;101318.44;;;21.37;52.25
53246;BME280;39569;51.090;-1.786;2023-05-08T07:36:40;101317.41;;;21.20;51.95
53246;BME280;39569;51.090;-1.786;2023-05-08T07:39:09;101313.75;;;21.85;50.56
53246;BME280;39569;51.090;-1.786;2023-05-08T07:41:36;101312.16;;;21.78;50.62
53246;BME280;39569;51.090;-1.786;2023-05-08T07:44:05;101315.06;;;21.94;49.90
53246;BME280;39569;51.090;-1.786;2023-05-08T07:46:32;101318.97;;;21.45;51.33
53246;BME280;39569;51.090;-1.786;2023-05-08T07:48:58;101312.28;;;21.71;50.84
53246;BME280;39569;51.090;-1.786;2023-05-08T07:51:25;101320.13;;;21.79;51.21
53246;BME280;39569;51.090;-1.786;2023-05-08T07:53:52;101309.41;;;22.07;51.15
53246;BME280;39569;51.090;-1.786;2023-05-08T07:56:20;101310.94;;;22.15;50.44
53246;BME280;39569;51.090;-1.786;2023-05-08T07:58:49;101312.47;;;22.11;50.75
53246;BME280;39569;51.090;-1.786;2023-05-08T08:01:16;101302.88;;;21.85;51.26
53246;BME280;39569;51.090;-1.786;2023-05-08T08:03:43;101302.19;;;22.24;51.37
53246;BME280;39569;51.090;-1.786;2023-05-08T08:06:10;101304.78;;;21.96;51.53
53246;BME280;39569;51.090;-1.786;2023-05-08T08:08:37;101297.53;;;21.79;52.25
53246;BME280;39569;51.090;-1.786;2023-05-08T08:11:05;101295.34;;;21.99;51.89
53246;BME280;39569;51.090;-1.786;2023-05-08T08:13:33;101299.97;;;22.68;50.00
53246;BME280;39569;51.090;-1.786;2023-05-08T08:16:00;101300.53;;;22.23;50.72
53246;BME280;39569;51.090;-1.786;2023-05-08T08:18:28;101301.34;;;21.89;51.92
53246;BME280;39569;51.090;-1.786;2023-05-08T08:20:55;101297.66;;;22.53;50.30
53246;BME280;39569;51.090;-1.786;2023-05-08T08:23:22;101298.38;;;21.91;50.53
53246;BME280;39569;51.090;-1.786;2023-05-08T08:25:48;101298.66;;;21.60;52.15
53246;BME280;39569;51.090;-1.786;2023-05-08T08:28:18;101302.53;;;21.22;53.75
53246;BME280;39569;51.090;-1.786;2023-05-08T08:30:46;101306.22;;;21.28;53.36
53246;BME280;39569;51.090;-1.786;2023-05-08T08:33:13;101299.59;;;21.95;51.56
53246;BME280;39569;51.090;-1.786;2023-05-08T08:35:39;101301.97;;;21.62;52.03
53246;BME280;39569;51.090;-1.786;2023-05-08T08:38:06;101310.75;;;20.98;53.77
53246;BME280;39569;51.090;-1.786;2023-05-08T08:40:38;101299.13;;;22.09;51.39
53246;BME280;39569;51.090;-1.786;2023-05-08T08:43:05;101306.31;;;21.81;52.11
53246;BME280;39569;51.090;-1.786;2023-05-08T08:45:32;101291.66;;;22.39;50.62
53246;BME280;39569;51.090;-1.786;2023-05-08T08:48:01;101302.22;;;22.36;51.18
53246;BME280;39569;51.090;-1.786;2023-05-08T08:50:30;101300.13;;;21.32;51.83
53246;BME280;39569;51.090;-1.786;2023-05-08T08:53:01;101304.44;;;21.93;51.64
53246;BME280;39569;51.090;-1.786;2023-05-08T08:55:37;101307.16;;;22.27;50.71
53246;BME280;39569;51.090;-1.786;2023-05-08T08:58:13;101310.78;;;21.87;50.60
53246;BME280;39569;51.090;-1.786;2023-05-08T09:00:40;101299.50;;;21.60;51.69
53246;BME280;39569;51.090;-1.786;2023-05-08T09:03:09;101297.22;;;22.10;50.79
53246;BME280;39569;51.090;-1.786;2023-05-08T09:05:36;101298.63;;;21.48;52.46
53246;BME280;39569;51.090;-1.786;2023-05-08T09:08:04;101291.56;;;22.11;51.52
53246;BME280;39569;51.090;-1.786;2023-05-08T09:10:31;101299.25;;;22.49;50.58
53246;BME280;39569;51.090;-1.786;2023-05-08T09:13:00;101294.97;;;22.30;51.23
53246;BME280;39569;51.090;-1.786;2023-05-08T09:15:27;101293.69;;;22.67;50.01
53246;BME280;39569;51.090;-1.786;2023-05-08T09:17:53;101280.78;;;21.52;52.29
53246;BME280;39569;51.090;-1.786;2023-05-08T09:20:22;101293.44;;;22.11;51.14
53246;BME280;39569;51.090;-1.786;2023-05-08T09:22:50;101287.50;;;21.38;52.44
53246;BME280;39569;51.090;-1.786;2023-05-08T09:25:18;101259.97;;;22.10;50.80
53246;BME280;39569;51.090;-1.786;2023-05-08T09:27:45;101245.50;;;22.56;49.85
53246;BME280;39569;51.090;-1.786;2023-05-08T09:30:12;101254.88;;;22.88;49.39
53246;BME280;39569;51.090;-1.786;2023-05-08T09:32:41;101262.97;;;22.72;49.75
53246;BME280;39569;51.090;-1.786;2023-05-08T09:35:09;101256.13;;;22.69;49.84
53246;BME280;39569;51.090;-1.786;2023-05-08T09:37:38;101254.41;;;22.91;49.32
53246;BME280;39569;51.090;-1.786;2023-05-08T09:40:13;101250.41;;;22.82;49.80
53246;BME280;39569;51.090;-1.786;2023-05-08T09:42:40;101262.31;;;21.84;51.36
53246;BME280;39569;51.090;-1.786;2023-05-08T09:45:09;101270.72;;;22.05;51.03
53246;BME280;39569;51.090;-1.786;2023-05-08T09:47:36;101269.28;;;22.49;49.63
53246;BME280;39569;51.090;-1.786;2023-05-08T09:50:06;101272.19;;;21.67;50.87
53246;BME280;39569;51.090;-1.786;2023-05-08T09:52:34;101265.78;;;22.14;51.04
53246;BME280;39569;51.090;-1.786;2023-05-08T09:55:04;101259.56;;;22.65;49.89
53246;BME280;39569;51.090;-1.786;2023-05-08T09:57:33;101246.88;;;23.38;48.16
53246;BME280;39569;51.090;-1.786;2023-05-08T10:00:05;101263.41;;;23.20;48.26
53246;BME280;39569;51.090;-1.786;2023-05-08T10:02:33;101284.78;;;22.48;48.94
53246;BME280;39569;51.090;-1.786;2023-05-08T10:05:00;101264.91;;;22.60;49.47
53246;BME280;39569;51.090;-1.786;2023-05-08T10:07:28;101268.84;;;22.17;50.71
53246;BME280;39569;51.090;-1.786;2023-05-08T10:10:00;101261.91;;;22.73;49.55
53246;BME280;39569;51.090;-1.786;2023-05-08T10:12:29;101260.28;;;22.48;49.82
53246;BME280;39569;51.090;-1.786;2023-05-08T10:14:56;101248.66;;;22.65;49.09
53246;BME280;39569;51.090;-1.786;2023-05-08T10:17:25;101251.28;;;22.60;49.58
53246;BME280;39569;51.090;-1.786;2023-05-08T10:19:57;101257.59;;;23.16;48.39
53246;BME280;39569;51.090;-1.786;2023-05-08T10:22:26;101255.88;;;23.55;48.05
53246;BME280;39569;51.090;-1.786;2023-05-08T10:24:56;101249.19;;;23.18;48.30
53246;BME280;39569;51.090;-1.786;2023-05-08T10:27:33;101250.25;;;22.89;49.10
53246;BME280;39569;51.090;-1.786;2023-05-08T10:30:01;101251.09;;;22.89;48.45
53246;BME280;39569;51.090;-1.786;2023-05-08T10:32:37;101257.13;;;23.19;48.30
53246;BME280;39569;51.090;-1.786;2023-05-08T10:35:07;101252.19;;;23.61;47.74
53246;BME280;39569;51.090;-1.786;2023-05-08T10:37:36;101269.13;;;23.80;47.34
53246;BME280;39569;51.090;-1.786;2023-05-08T10:40:04;101263.47;;;23.53;48.17
53246;BME280;39569;51.090;-1.786;2023-05-08T10:42:33;101265.91;;;23.83;46.90
53246;BME280;39569;51.090;-1.786;2023-05-08T10:45:01;101266.59;;;23.90;46.97
53246;BME280;39569;51.090;-1.786;2023-05-08T10:47:35;101248.13;;;23.97;46.46
53246;BME280;39569;51.090;-1.786;2023-05-08T10:50:11;101255.78;;;23.33;47.93
53246;BME280;39569;51.090;-1.786;2023-05-08T10:52:48;101260.25;;;23.11;47.80
53246;BME280;39569;51.090;-1.786;2023-05-08T10:55:22;101270.38;;;22.13;50.00
53246;BME280;39569;51.090;-1.786;2023-05-08T10:58:12;101258.53;;;22.08;50.64
53246;BME280;39569;51.090;-1.786;2023-05-08T11:01:14;101256.28;;;22.28;50.11
53246;BME280;39569;51.090;-1.786;2023-05-08T11:03:43;101244.44;;;22.45;49.34
53246;BME280;39569;51.090;-1.786;2023-05-08T11:06:11;101256.03;;;22.53;50.38
53246;BME280;39569;51.090;-1.786;2023-05-08T11:08:48;101254.69;;;22.55;49.62
53246;BME280;39569;51.090;-1.786;2023-05-08T11:11:27;101249.63;;;22.98;48.82
53246;BME280;39569;51.090;-1.786;2023-05-08T11:14:09;101256.84;;;23.04;48.77
53246;BME280;39569;51.090;-1.786;2023-05-08T11:17:05;101268.75;;;22.87;49.14
53246;BME280;39569;51.090;-1.786;2023-05-08T11:19:33;101260.75;;;23.53;47.68
53246;BME280;39569;51.090;-1.786;2023-05-08T11:22:14;101248.31;;;21.69;52.57
53246;BME280;39569;51.090;-1.786;2023-05-08T11:24:47;101234.59;;;22.33;51.10
53246;BME280;39569;51.090;-1.786;2023-05-08T11:27:14;101237.56;;;22.31;50.82
53246;BME280;39569;51.090;-1.786;2023-05-08T11:29:42;101249.06;;;22.45;50.79
53246;BME280;39569;51.090;-1.786;2023-05-08T11:32:10;101251.31;;;22.25;51.20
53246;BME280;39569;51.090;-1.786;2023-05-08T11:34:46;101270.13;;;22.15;50.94
53246;BME280;39569;51.090;-1.786;2023-05-08T11:37:18;101265.88;;;22.93;49.69
53246;BME280;39569;51.090;-1.786;2023-05-08T11:39:45;101261.72;;;22.28;50.42
53246;BME280;39569;51.090;-1.786;2023-05-08T11:42:32;101242.03;;;22.61;49.95
53246;BME280;39569;51.090;-1.786;2023-05-08T11:45:04;101214.44;;;22.69;50.12
53246;BME280;39569;51.090;-1.786;2023-05-08T11:47:36;101210.50;;;22.76;49.62
53246;BME280;39569;51.090;-1.786;2023-05-08T11:50:05;101214.88;;;22.26;50.11
53246;BME280;39569;51.090;-1.786;2023-05-08T11:52:33;101197.38;;;22.73;49.42
53246;BME280;39569;51.090;-1.786;2023-05-08T11:55:02;101209.22;;;22.79;49.55
53246;BME280;39569;51.090;-1.786;2023-05-08T11:57:30;101208.47;;;23.11;49.11
53246;BME280;39569;51.090;-1.786;2023-05-08T11:59:57;101217.69;;;23.10;49.21
53246;BME280;39569;51.090;-1.786;2023-05-08T12:02:35;101212.03;;;23.12;49.09
53246;BME280;39569;51.090;-1.786;2023-05-08T12:05:03;101221.25;;;23.39;48.58
53246;BME280;39569;51.090;-1.786;2023-05-08T12:07:30;101225.69;;;23.28;49.42
53246;BME280;39569;51.090;-1.786;2023-05-08T12:09:56;101215.81;;;23.11;48.96
53246;BME280;39569;51.090;-1.786;2023-05-08T12:12:35;101216.31;;;23.08;49.48
53246;BME280;39569;51.090;-1.786;2023-05-08T12:15:05;101208.53;;;23.45;48.88
53246;BME280;39569;51.090;-1.786;2023-05-08T12:17:32;101208.19;;;23.74;47.80
53246;BME280;39569;51.090;-1.786;2023-05-08T12:20:10;101211.44;;;23.88;47.73
53246;BME280;39569;51.090;-1.786;2023-05-08T12:22:38;101212.00;;;23.90;47.51
53246;BME280;39569;51.090;-1.786;2023-05-08T12:25:06;101206.31;;;23.42;49.00
53246;BME280;39569;51.090;-1.786;2023-05-08T12:27:33;101202.56;;;23.64;47.96
53246;BME280;39569;51.090;-1.786;2023-05-08T12:30:05;101187.09;;;23.86;47.66
53246;BME280;39569;51.090;-1.786;2023-05-08T12:32:33;101181.63;;;23.20;49.16
53246;BME280;39569;51.090;-1.786;2023-05-08T12:35:00;101193.09;;;24.21;47.60
53246;BME280;39569;51.090;-1.786;2023-05-08T12:37:28;101190.41;;;23.72;48.03
53246;BME280;39569;51.090;-1.786;2023-05-08T12:39:55;101192.47;;;24.58;46.77
53246;BME280;39569;51.090;-1.786;2023-05-08T12:42:23;101189.97;;;23.96;48.07
53246;BME280;39569;51.090;-1.786;2023-05-08T12:45:07;101192.09;;;23.73;47.80
53246;BME280;39569;51.090;-1.786;2023-05-08T12:47:34;101194.56;;;23.41;49.33
53246;BME280;39569;51.090;-1.786;2023-05-08T12:50:01;101192.75;;;23.30;49.33
53246;BME280;39569;51.090;-1.786;2023-05-08T12:52:29;101199.03;;;23.47;49.35